Предлагаем Вашему вниманию английскую версию страницы: AUTOTAF.ME 34247 - aviation weather forecast Kalach

AUTOTAF 34247 - авиапрогноз Калач

Сегодня рассвет 03:24 UTC, восход солнца 03:57 UTC,
местный полдень 08:59 UTC, заход солнца 14:01 UTC,
наступление темноты 14:34 UTC.

Краткий прогноз 34247 на 9 часов

AUTOTAF.ME 34247 261400Z 2615/2624 VRB02MPS 9999 BKN025     
  BECMG 2619/2621 09003MPS

Детальный прогноз 34247 на 24 часа

AUTOTAF.ME 34247 261400Z 2615/2715 VRB02MPS 9999 BKN025 TX11/2709Z TN06/2700Z   
  BECMG 2619/2621 09003MPS   
  BECMG 2701/2703 BKN011   
  FM270900 12008G13MPS 9999 SCT018 
  BECMG 2710/2712 BKN026  
  FM271500 11005G11MPS 9999 BKN164

Подробный табличный прогноз

Время (UTC) miniAUTOTAF на 3 ч WX FZLVL
M AGL
ICE TURB Т
(°С)
Тd
(°С)
f(%) QNH
(гПа)
WIND/T
12 VRB02MPS 9999 BKN025 3300 MOD SFC/FL40 13 4 55 1023 ...
15 VRB02MPS 9999 BKN025 3000 MOD SFC/FL30 10 5 68 1023 ...
18 07003MPS 9999 BKN025 3000 MOD FL30/FL40 8 4 76 1025 ...
21 09003MPS 9999 SCT018 3000 MOD FL30/FL40 7 4 82 1025 ...
27.10.2020
00 09003MPS 9999 SCT018 3000 6 4 85 1027 ...
03 10003MPS 9999 BKN011 3000 MOD FL170/FL190 6 4 84 1027 ...
06 12005MPS 9999 BKN011 3000 MOD FL170/FL190 8 4 77 1028 ...
09 12008G13MPS 9999 SCT018 3000 MOD FL170/FL180 MOD SFC/FL20 11 3 60 1028 ...
12 12008G13MPS 9999 BKN026 3000 MOD SFC/FL30 11 3 54 1028 ...
15 11005G11MPS 9999 BKN164 2850 MOD FL170/FL190 8 1 64 1028 ...
18 13006G12MPS 9999 BKN164TCU 2850 FBL FL170/FL190 MOD SFC/FL20 7 -1 57 1029 ...
21 12005G11MPS 9999 SCT150 2850 5 -3 56 1028 ...
28.10.2020
00 12005G11MPS 9999 SCT160 2700 4 -4 58 1029 ...
03 12005G11MPS 9999 BKN187TCU 2700 3 -6 52 1028 ...
06 12006MPS 9999 SCT187 2700 MOD FL190/FL200 5 -5 48 1028 ...
09 13009G14MPS 9999 BKN101 2700 MOD FL170/FL190 MOD SFC/FL20 10 -4 39 1027 ...


Широта 50.4°, долгота 41.1°, высота 92 м абс.
Средняя высота рельефа местности 159 м абс.
Прогнозы обновляются четыре раза в сутки: в 02, 08, 14, 20 ч всемирного времени.


Выбрать прогноз по другой модели Калач
Онлайн-сводка гроз по Калач (для РФ и ближнего зарубежья)
Карта фактических гроз в окрестностях Калач
Динамические прогностические карты (ventusky.com)
Прогностическая карта высоты нижней границы облаков по Калач (windy.com)
Выбрать другой город

Прогноз предназначен для личного научно-познавательного использования частными лицами
и не предназначен для принятия важных решений и выполнения реальных полётов воздушных судов

При копировании или ином использовании любых материалов данного сайта ссылка на © meteocenter.asia обязательна.

1.07/1.5